createdAt,value
2018-05-24T00:01:50.999Z,7.20
2018-05-24T00:04:18.713Z,7.93
2018-05-24T00:06:46.390Z,7.90
2018-05-24T00:09:13.992Z,9.00
2018-05-24T00:11:41.562Z,8.13
2018-05-24T00:14:09.193Z,7.60
2018-05-24T00:16:36.815Z,7.37
2018-05-24T00:19:04.390Z,6.93
2018-05-24T00:21:31.999Z,7.87
2018-05-24T00:23:59.580Z,8.57
2018-05-24T00:26:27.161Z,8.90
2018-05-24T00:28:54.800Z,7.30
2018-05-24T00:31:22.382Z,8.67
2018-05-24T00:33:49.969Z,7.37
2018-05-24T00:36:17.592Z,8.40
2018-05-24T00:38:45.177Z,7.50
2018-05-24T00:41:12.776Z,10.30
2018-05-24T00:43:40.391Z,6.97
2018-05-24T00:46:07.960Z,7.90
2018-05-24T00:48:35.530Z,7.27
2018-05-24T00:51:03.145Z,7.77
2018-05-24T00:53:30.744Z,7.10
2018-05-24T00:55:58.328Z,7.70
2018-05-24T00:58:25.968Z,8.03
2018-05-24T01:00:53.552Z,7.50
2018-05-24T01:03:21.175Z,7.73
2018-05-24T01:05:48.810Z,8.17
2018-05-24T01:08:16.401Z,6.83
2018-05-24T01:10:43.958Z,7.07
2018-05-24T01:13:11.582Z,7.87
2018-05-24T01:15:39.149Z,7.97
2018-05-24T01:18:06.757Z,7.80
2018-05-24T01:20:34.376Z,8.27
2018-05-24T01:23:01.951Z,6.90
2018-05-24T01:25:29.540Z,6.80
2018-05-24T01:27:57.179Z,7.10
2018-05-24T01:30:24.767Z,7.90
2018-05-24T01:32:52.349Z,8.03
2018-05-24T01:35:19.980Z,7.27
2018-05-24T01:37:51.280Z,6.73
2018-05-24T01:40:18.862Z,7.17
2018-05-24T01:42:46.492Z,7.30
2018-05-24T01:45:14.071Z,8.07
2018-05-24T01:47:41.658Z,7.60
2018-05-24T01:50:09.357Z,7.60
2018-05-24T01:52:36.945Z,7.97
2018-05-24T01:55:04.515Z,8.27
2018-05-24T01:57:32.146Z,6.13
2018-05-24T01:59:59.734Z,8.00
2018-05-24T02:02:27.316Z,7.87
2018-05-24T02:04:54.940Z,6.97
2018-05-24T02:07:22.527Z,6.67
2018-05-24T02:09:50.117Z,7.57
2018-05-24T02:12:17.729Z,8.30
2018-05-24T02:14:45.310Z,8.10
2018-05-24T02:17:12.891Z,8.47
2018-05-24T02:19:40.512Z,8.80
2018-05-24T02:22:08.092Z,8.93
2018-05-24T02:24:35.684Z,8.17
2018-05-24T02:27:03.326Z,7.73
2018-05-24T02:29:30.904Z,7.40
2018-05-24T02:31:58.500Z,9.67
2018-05-24T02:34:26.118Z,7.73
2018-05-24T02:36:53.724Z,11.20
2018-05-24T02:39:21.396Z,11.73
2018-05-24T02:41:49.025Z,8.23
2018-05-24T02:44:16.612Z,7.40
2018-05-24T02:46:44.217Z,8.60
2018-05-24T02:49:11.845Z,6.80
2018-05-24T02:51:39.423Z,6.90
2018-05-24T02:54:07.014Z,7.60
2018-05-24T02:56:34.626Z,7.17
2018-05-24T02:59:02.204Z,6.93
2018-05-24T03:01:29.786Z,6.90
2018-05-24T03:03:57.403Z,7.30
2018-05-24T03:06:24.990Z,8.93
2018-05-24T03:08:52.575Z,7.63
2018-05-24T03:11:20.365Z,8.30
2018-05-24T03:13:47.954Z,8.00
2018-05-24T03:16:15.552Z,7.70
2018-05-24T03:18:43.176Z,7.13
2018-05-24T03:21:10.756Z,7.70
2018-05-24T03:23:38.348Z,8.50
2018-05-24T03:26:05.976Z,7.87
2018-05-24T03:28:33.562Z,7.70
2018-05-24T03:31:01.182Z,6.53
2018-05-24T03:33:28.801Z,8.37
2018-05-24T03:35:56.388Z,8.53
2018-05-24T03:38:23.965Z,9.57
2018-05-24T03:40:51.589Z,7.40
2018-05-24T03:43:19.179Z,6.27
2018-05-24T03:45:46.770Z,5.93
2018-05-24T03:48:14.405Z,5.10
2018-05-24T03:50:41.997Z,6.30
2018-05-24T03:53:09.571Z,5.10
2018-05-24T03:55:37.196Z,5.70
2018-05-24T03:58:04.773Z,5.40
2018-05-24T04:00:44.036Z,5.27
2018-05-24T04:03:23.366Z,5.47
2018-05-24T04:05:51.000Z,5.20
2018-05-24T04:08:19.482Z,5.53
2018-05-24T04:10:47.095Z,4.73
2018-05-24T04:13:14.716Z,5.67
2018-05-24T04:15:42.309Z,5.80
2018-05-24T04:18:09.894Z,7.00
2018-05-24T04:20:37.512Z,5.00
2018-05-24T04:23:05.100Z,5.00
2018-05-24T04:25:32.677Z,4.73
2018-05-24T04:28:00.291Z,5.50
2018-05-24T04:30:27.875Z,5.57
2018-05-24T04:32:55.479Z,6.27
2018-05-24T04:35:23.127Z,6.03
2018-05-24T04:37:50.733Z,9.47
2018-05-24T04:40:18.355Z,5.40
2018-05-24T04:42:45.974Z,7.10
2018-05-24T04:45:13.547Z,6.40
2018-05-24T04:47:41.131Z,7.30
2018-05-24T04:50:08.768Z,7.17
2018-05-24T04:52:36.350Z,5.30
2018-05-24T04:55:03.939Z,6.13
2018-05-24T04:57:31.563Z,4.80
2018-05-24T04:59:59.139Z,6.20
2018-05-24T05:02:26.726Z,5.67
2018-05-24T05:04:54.344Z,4.90
2018-05-24T05:07:21.927Z,5.80
2018-05-24T05:09:49.522Z,4.67
2018-05-24T05:12:17.146Z,4.37
2018-05-24T05:14:44.737Z,5.03
2018-05-24T05:17:12.323Z,4.43
2018-05-24T05:19:39.930Z,5.17
2018-05-24T05:22:07.518Z,6.27
2018-05-24T05:24:35.119Z,4.60
2018-05-24T05:27:02.783Z,4.97
2018-05-24T05:29:30.373Z,4.77
2018-05-24T05:31:57.964Z,4.50
2018-05-24T05:34:25.584Z,3.63
2018-05-24T05:36:53.159Z,4.47
2018-05-24T05:39:20.731Z,6.93
2018-05-24T05:41:48.356Z,4.23
2018-05-24T05:44:15.938Z,4.97
2018-05-24T05:46:43.520Z,3.67
2018-05-24T05:49:11.144Z,3.57
2018-05-24T05:51:38.714Z,2.43
2018-05-24T05:54:06.283Z,3.87
2018-05-24T05:56:33.890Z,2.50
2018-05-24T05:59:01.513Z,3.17
2018-05-24T06:01:29.126Z,3.40
2018-05-24T06:03:56.734Z,3.40
2018-05-24T06:06:24.319Z,3.80
2018-05-24T06:08:51.904Z,2.90
2018-05-24T06:11:19.523Z,3.57
2018-05-24T06:13:47.168Z,4.33
2018-05-24T06:16:14.736Z,4.53
2018-05-24T06:18:42.351Z,4.17
2018-05-24T06:21:09.943Z,4.80
2018-05-24T06:23:37.528Z,5.47
2018-05-24T06:26:05.147Z,6.17
2018-05-24T06:28:32.756Z,5.67
2018-05-24T06:31:00.336Z,11.67
2018-05-24T06:33:27.953Z,4.40
2018-05-24T06:35:55.527Z,4.83
2018-05-24T06:38:23.115Z,7.83
2018-05-24T06:40:50.767Z,4.43
2018-05-24T06:43:18.398Z,4.57
2018-05-24T06:45:45.980Z,4.27
2018-05-24T06:48:13.602Z,4.77
2018-05-24T06:50:41.194Z,4.40
2018-05-24T06:53:08.776Z,4.97
2018-05-24T06:55:36.391Z,3.63
2018-05-24T06:58:04.015Z,4.47
2018-05-24T07:00:31.609Z,3.80
2018-05-24T07:02:59.234Z,4.23
2018-05-24T07:05:26.845Z,4.43
2018-05-24T07:07:54.581Z,5.50
2018-05-24T07:10:22.202Z,4.10
2018-05-24T07:12:49.802Z,4.40
2018-05-24T07:15:17.391Z,3.87
2018-05-24T07:17:45.000Z,4.60
2018-05-24T07:20:12.589Z,4.00
2018-05-24T07:22:40.163Z,4.43
2018-05-24T07:25:07.805Z,4.40
2018-05-24T07:27:35.398Z,4.87
2018-05-24T07:30:02.992Z,4.50
2018-05-24T07:32:30.651Z,4.43
2018-05-24T07:34:58.215Z,4.50
2018-05-24T07:37:25.806Z,4.20
2018-05-24T07:39:53.429Z,4.87
2018-05-24T07:42:21.017Z,4.90
2018-05-24T07:44:49.988Z,5.60
2018-05-24T07:47:18.252Z,4.40
2018-05-24T07:49:45.891Z,4.80
2018-05-24T07:52:13.494Z,4.67
2018-05-24T07:54:41.956Z,5.10
2018-05-24T07:57:10.290Z,4.60
2018-05-24T07:59:38.397Z,4.13
2018-05-24T08:02:06.922Z,4.00
2018-05-24T08:04:34.570Z,4.70
2018-05-24T08:07:02.148Z,4.87
2018-05-24T08:09:29.792Z,4.90
2018-05-24T08:11:57.378Z,4.87
2018-05-24T08:14:24.959Z,5.00
2018-05-24T08:16:52.583Z,5.30
2018-05-24T08:19:20.192Z,4.33
2018-05-24T08:21:47.765Z,3.43
2018-05-24T08:24:15.372Z,4.77
2018-05-24T08:26:42.947Z,3.70
2018-05-24T08:29:10.519Z,4.00
2018-05-24T08:31:38.130Z,4.43
2018-05-24T08:34:05.702Z,3.60
2018-05-24T08:36:33.273Z,4.33
2018-05-24T08:39:00.877Z,5.00
2018-05-24T08:41:28.444Z,3.53
2018-05-24T08:43:56.012Z,3.80
2018-05-24T08:46:23.638Z,3.67
2018-05-24T08:48:51.375Z,4.60
2018-05-24T08:51:19.286Z,3.50
2018-05-24T08:53:47.014Z,3.17
2018-05-24T08:56:14.609Z,3.42
2018-05-24T08:58:42.180Z,3.70
2018-05-24T09:01:09.783Z,4.20
2018-05-24T09:03:37.572Z,4.65
2018-05-24T09:06:05.157Z,3.80
2018-05-24T09:08:32.785Z,3.40
2018-05-24T09:11:00.377Z,4.33
2018-05-24T09:13:27.957Z,3.90
2018-05-24T09:15:55.591Z,3.20
2018-05-24T09:18:23.173Z,6.10
2018-05-24T09:20:50.758Z,3.80
2018-05-24T09:23:18.373Z,4.23
2018-05-24T09:25:45.960Z,4.43
2018-05-24T09:28:13.535Z,3.80
2018-05-24T09:30:41.144Z,6.13
2018-05-24T09:33:08.706Z,4.30
2018-05-24T09:35:36.321Z,4.83
2018-05-24T09:38:03.965Z,4.10
2018-05-24T09:40:31.539Z,3.27
2018-05-24T09:42:59.109Z,3.80
2018-05-24T09:45:26.731Z,5.90
2018-05-24T09:47:54.316Z,4.90
2018-05-24T09:50:21.892Z,4.80
2018-05-24T09:52:49.492Z,4.47
2018-05-24T09:55:17.270Z,3.60
2018-05-24T09:57:44.872Z,4.30
2018-05-24T10:00:12.529Z,4.63
2018-05-24T10:02:40.110Z,4.00
2018-05-24T10:05:07.740Z,3.80
2018-05-24T10:07:35.562Z,4.90
2018-05-24T10:10:03.166Z,3.87
2018-05-24T10:12:30.744Z,3.80
2018-05-24T10:14:58.360Z,3.23
2018-05-24T10:17:25.942Z,3.67
2018-05-24T10:19:53.530Z,4.07
2018-05-24T10:22:21.167Z,3.47
2018-05-24T10:24:48.793Z,3.93
2018-05-24T10:27:16.420Z,4.47
2018-05-24T10:29:44.044Z,3.43
2018-05-24T10:32:11.615Z,2.87
2018-05-24T10:34:39.187Z,3.30
2018-05-24T10:37:06.840Z,3.40
2018-05-24T10:39:34.859Z,3.17
2018-05-24T10:42:02.417Z,3.90
2018-05-24T10:44:30.024Z,4.50
2018-05-24T10:46:57.602Z,3.40
2018-05-24T10:49:25.168Z,3.20
2018-05-24T10:51:52.776Z,4.13
2018-05-24T10:54:20.422Z,3.83
2018-05-24T10:56:48.046Z,3.63
2018-05-24T10:59:15.638Z,4.77
2018-05-24T11:01:43.220Z,2.93
2018-05-24T11:04:10.785Z,3.10
2018-05-24T11:06:38.386Z,3.10
2018-05-24T11:09:06.860Z,2.57
2018-05-24T11:11:34.434Z,3.60
2018-05-24T11:14:02.050Z,3.27
2018-05-24T11:16:29.778Z,3.10
2018-05-24T11:18:57.367Z,3.30
2018-05-24T11:21:24.959Z,2.80
2018-05-24T11:23:52.519Z,2.90
2018-05-24T11:26:20.089Z,2.67
2018-05-24T11:28:47.713Z,2.80
2018-05-24T11:31:15.278Z,3.27
2018-05-24T11:33:42.850Z,3.80
2018-05-24T11:36:10.477Z,3.03
2018-05-24T11:38:38.045Z,4.20
2018-05-24T11:41:05.619Z,4.50
2018-05-24T11:43:33.243Z,3.90
2018-05-24T11:46:00.815Z,2.90
2018-05-24T11:48:28.388Z,3.10
2018-05-24T11:50:56.007Z,3.23
2018-05-24T11:53:23.568Z,3.13
2018-05-24T11:55:51.143Z,4.10
2018-05-24T11:58:18.775Z,3.67
2018-05-24T12:00:46.329Z,3.30
2018-05-24T12:03:13.922Z,2.90
2018-05-24T12:05:41.546Z,4.30
2018-05-24T12:08:09.121Z,2.53
2018-05-24T12:10:36.701Z,1.90
2018-05-24T12:13:04.347Z,2.13
2018-05-24T12:15:31.936Z,1.90
2018-05-24T12:17:59.509Z,2.87
2018-05-24T12:20:27.116Z,2.60
2018-05-24T12:22:54.691Z,3.90
2018-05-24T12:25:22.263Z,2.70
2018-05-24T12:27:49.862Z,3.33
2018-05-24T12:32:58.818Z,4.30
2018-05-24T12:35:28.321Z,3.33
2018-05-24T12:37:56.026Z,4.20
2018-05-24T12:40:23.638Z,5.10
2018-05-24T12:42:51.208Z,4.13
2018-05-24T12:45:18.764Z,4.20
2018-05-24T12:47:46.404Z,3.70
2018-05-24T12:50:14.319Z,4.00
2018-05-24T12:52:41.922Z,4.30
2018-05-24T12:55:09.563Z,5.30
2018-05-24T12:57:37.139Z,4.43
2018-05-24T13:00:04.705Z,3.87
2018-05-24T13:02:32.316Z,4.60
2018-05-24T13:04:59.891Z,3.30
2018-05-24T13:07:27.476Z,4.90
2018-05-24T13:09:55.117Z,3.47
2018-05-24T13:12:22.714Z,2.70
2018-05-24T13:14:50.279Z,3.20
2018-05-24T13:17:17.883Z,4.13
2018-05-24T13:19:45.458Z,3.80
2018-05-24T13:22:13.033Z,3.47
2018-05-24T13:24:40.647Z,2.80
2018-05-24T13:27:08.200Z,3.00
2018-05-24T13:29:35.819Z,2.80
2018-05-24T13:32:03.434Z,3.00
2018-05-24T13:34:31.088Z,3.60
2018-05-24T13:36:58.621Z,5.13
2018-05-24T13:39:26.512Z,10.17
2018-05-24T13:41:54.309Z,4.47
2018-05-24T13:44:21.984Z,2.70
2018-05-24T13:46:49.681Z,4.90
2018-05-24T13:49:18.310Z,3.87
2018-05-24T13:51:47.538Z,2.93
2018-05-24T13:54:16.882Z,4.10
2018-05-24T13:56:46.700Z,3.20
2018-05-24T13:59:15.408Z,4.87
2018-05-24T14:01:43.972Z,2.80
2018-05-24T14:04:12.673Z,2.87
2018-05-24T14:06:40.346Z,3.60
2018-05-24T14:09:07.959Z,3.00
2018-05-24T14:11:35.534Z,3.50
2018-05-24T14:14:03.103Z,3.10
2018-05-24T14:16:30.693Z,3.80
2018-05-24T14:18:58.253Z,2.70
2018-05-24T14:21:26.613Z,4.53
2018-05-24T14:23:55.627Z,5.03
2018-05-24T14:26:24.461Z,3.63
2018-05-24T14:28:53.152Z,2.73
2018-05-24T14:31:22.624Z,3.13
2018-05-24T14:33:50.330Z,3.37
2018-05-24T14:36:17.996Z,3.20
2018-05-24T14:38:45.638Z,3.23
2018-05-24T14:41:13.204Z,3.00
2018-05-24T14:43:40.800Z,3.47
2018-05-24T14:46:08.393Z,4.20
2018-05-24T14:48:35.985Z,3.53
2018-05-24T14:51:03.603Z,4.27
2018-05-24T14:53:31.290Z,4.37
2018-05-24T14:55:58.877Z,7.03
2018-05-24T14:58:26.467Z,3.40
2018-05-24T15:00:54.193Z,3.90
2018-05-24T15:03:21.787Z,4.80
2018-05-24T15:05:49.357Z,5.33
2018-05-24T15:08:16.979Z,4.80
2018-05-24T15:10:44.546Z,3.50
2018-05-24T15:13:23.861Z,4.67
2018-05-24T15:15:51.492Z,4.03
2018-05-24T15:18:19.077Z,4.30
2018-05-24T15:20:47.689Z,5.20
2018-05-24T15:23:15.273Z,3.97
2018-05-24T15:25:42.840Z,4.10
2018-05-24T15:28:10.452Z,3.80
2018-05-24T15:30:38.027Z,5.33
2018-05-24T15:33:05.637Z,4.73
2018-05-24T15:35:33.271Z,4.80
2018-05-24T15:38:00.838Z,4.73
2018-05-24T15:40:28.413Z,4.10
2018-05-24T15:42:56.020Z,4.77
2018-05-24T15:45:23.607Z,3.93
2018-05-24T15:47:51.184Z,5.40
2018-05-24T15:50:18.783Z,3.83
2018-05-24T15:52:46.359Z,5.10
2018-05-24T15:55:13.936Z,9.00
2018-05-24T15:57:41.567Z,10.83
2018-05-24T16:00:09.241Z,4.50
2018-05-24T16:02:36.821Z,4.47
2018-05-24T16:05:04.452Z,5.13
2018-05-24T16:07:32.047Z,6.57
2018-05-24T16:09:59.666Z,5.80
2018-05-24T16:12:27.280Z,4.50
2018-05-24T16:14:54.858Z,4.87
2018-05-24T16:17:22.441Z,4.60
2018-05-24T16:19:50.049Z,4.30
2018-05-24T16:22:17.664Z,4.77
2018-05-24T16:24:45.261Z,5.17
2018-05-24T16:27:12.888Z,4.37
2018-05-24T16:29:40.472Z,4.57
2018-05-24T16:32:08.059Z,8.80
2018-05-24T16:34:35.660Z,5.90
2018-05-24T16:37:03.298Z,4.43
2018-05-24T16:39:30.869Z,4.30
2018-05-24T16:41:58.510Z,5.40
2018-05-24T16:44:26.104Z,4.70
2018-05-24T16:46:53.739Z,5.70
2018-05-24T16:49:21.361Z,5.73
2018-05-24T16:51:48.927Z,5.37
2018-05-24T16:54:16.551Z,4.03
2018-05-24T16:56:44.157Z,4.27
2018-05-24T16:59:11.745Z,5.97
2018-05-24T17:01:39.328Z,4.93
2018-05-24T17:04:06.955Z,4.63
2018-05-24T17:06:34.567Z,5.80
2018-05-24T17:09:02.167Z,7.70
2018-05-24T17:11:29.774Z,6.50
2018-05-24T17:13:57.378Z,5.73
2018-05-24T17:16:24.958Z,6.10
2018-05-24T17:18:52.665Z,8.20
2018-05-24T17:21:20.239Z,6.80
2018-05-24T17:23:47.830Z,6.70
2018-05-24T17:26:15.460Z,6.50
2018-05-24T17:28:43.052Z,8.33
2018-05-24T17:31:10.634Z,6.90
2018-05-24T17:33:38.363Z,11.30
2018-05-24T17:36:05.932Z,16.53
2018-05-24T17:38:33.521Z,7.50
2018-05-24T17:41:01.136Z,10.27
2018-05-24T17:43:28.774Z,6.27
2018-05-24T17:45:56.310Z,7.73
2018-05-24T17:48:23.949Z,8.00
2018-05-24T17:50:51.558Z,6.47
2018-05-24T17:53:19.143Z,9.47
2018-05-24T17:55:46.772Z,5.93
2018-05-24T17:58:14.920Z,7.57
2018-05-24T18:00:42.562Z,6.53
2018-05-24T18:03:10.193Z,6.70
2018-05-24T18:05:37.788Z,5.97
2018-05-24T18:08:05.363Z,6.27
2018-05-24T18:10:32.990Z,6.40
2018-05-24T18:13:00.582Z,6.30
2018-05-24T18:15:28.153Z,7.07
2018-05-24T18:17:55.783Z,6.10
2018-05-24T18:20:23.363Z,6.87
2018-05-24T18:22:50.969Z,6.90
2018-05-24T18:25:18.610Z,7.07
2018-05-24T18:27:46.422Z,6.63
2018-05-24T18:30:14.200Z,6.70
2018-05-24T18:32:41.812Z,8.70
2018-05-24T18:35:09.396Z,7.77
2018-05-24T18:37:36.971Z,7.67
2018-05-24T18:40:04.591Z,8.07
2018-05-24T18:42:32.170Z,7.03
2018-05-24T18:44:59.849Z,8.03
2018-05-24T18:47:28.868Z,7.40
2018-05-24T18:49:56.451Z,8.20
2018-05-24T18:52:24.029Z,6.47
2018-05-24T18:54:51.621Z,7.57
2018-05-24T18:57:19.196Z,8.80
2018-05-24T18:59:46.775Z,8.53
2018-05-24T19:02:14.395Z,7.03
2018-05-24T19:04:41.984Z,6.63
2018-05-24T19:07:09.564Z,7.47
2018-05-24T19:09:37.166Z,8.23
2018-05-24T19:12:04.751Z,6.63
2018-05-24T19:14:32.420Z,7.90
2018-05-24T19:17:00.041Z,8.37
2018-05-24T19:19:28.514Z,6.60
2018-05-24T19:21:56.262Z,7.53
2018-05-24T19:24:27.860Z,9.10
2018-05-24T19:26:55.736Z,7.57
2018-05-24T19:29:24.950Z,7.90
2018-05-24T19:31:57.370Z,7.50
2018-05-24T19:34:28.351Z,8.83
2018-05-24T19:36:56.288Z,8.30
2018-05-24T19:39:23.863Z,7.20
2018-05-24T19:41:51.442Z,8.90
2018-05-24T19:44:19.058Z,9.67
2018-05-24T19:46:46.636Z,8.70
2018-05-24T19:49:14.219Z,9.13
2018-05-24T19:51:41.838Z,8.40
2018-05-24T19:54:09.478Z,9.50
2018-05-24T19:56:37.065Z,7.87
2018-05-24T19:59:04.679Z,9.60
2018-05-24T20:01:32.271Z,9.33
2018-05-24T20:03:59.853Z,9.90
2018-05-24T20:06:27.467Z,8.37
2018-05-24T20:08:55.041Z,9.33
2018-05-24T20:11:22.619Z,10.70
2018-05-24T20:13:50.231Z,9.90
2018-05-24T20:16:17.814Z,9.13
2018-05-24T20:18:45.392Z,10.13
2018-05-24T20:21:13.000Z,9.77
2018-05-24T20:23:40.583Z,10.23
2018-05-24T20:26:08.166Z,10.37
2018-05-24T20:28:35.897Z,9.80
2018-05-24T20:31:03.467Z,9.30
2018-05-24T20:33:31.051Z,10.20
2018-05-24T20:35:58.682Z,10.13
2018-05-24T20:38:26.255Z,10.70
2018-05-24T20:40:53.867Z,10.87
2018-05-24T20:43:21.494Z,10.27
2018-05-24T20:45:49.080Z,10.20
2018-05-24T20:48:16.692Z,9.57
2018-05-24T20:50:44.364Z,9.70
2018-05-24T20:53:11.936Z,9.80
2018-05-24T20:55:39.528Z,9.90
2018-05-24T20:58:07.139Z,9.67
2018-05-24T21:00:34.712Z,9.60
2018-05-24T21:03:02.292Z,10.50
2018-05-24T21:05:29.886Z,9.20
2018-05-24T21:07:57.459Z,11.10
2018-05-24T21:10:25.043Z,11.90
2018-05-24T21:12:52.640Z,9.50
2018-05-24T21:15:20.207Z,10.10
2018-05-24T21:17:47.837Z,9.70
2018-05-24T21:20:15.455Z,9.53
2018-05-24T21:22:43.046Z,10.10
2018-05-24T21:25:10.794Z,10.00
2018-05-24T21:27:38.431Z,8.97
2018-05-24T21:30:06.060Z,11.77
2018-05-24T21:32:33.643Z,10.47
2018-05-24T21:35:01.260Z,10.70
2018-05-24T21:37:28.844Z,11.00
2018-05-24T21:39:56.439Z,11.40
2018-05-24T21:42:24.055Z,9.73
2018-05-24T21:44:51.651Z,11.07
2018-05-24T21:47:19.223Z,8.67
2018-05-24T21:49:46.851Z,9.50
2018-05-24T21:52:14.441Z,9.50
2018-05-24T21:54:42.011Z,9.77
2018-05-24T21:57:09.632Z,8.67
2018-05-24T21:59:37.215Z,8.50
2018-05-24T22:02:04.832Z,8.60
2018-05-24T22:04:32.473Z,9.30
2018-05-24T22:07:00.055Z,9.80
2018-05-24T22:09:27.650Z,9.70
2018-05-24T22:11:55.282Z,9.10
2018-05-24T22:14:22.856Z,9.73
2018-05-24T22:16:50.493Z,11.10
2018-05-24T22:19:18.126Z,10.10
2018-05-24T22:21:45.705Z,10.00
2018-05-24T22:24:13.280Z,9.70
2018-05-24T22:26:40.897Z,8.83
2018-05-24T22:29:08.489Z,8.90
2018-05-24T22:31:36.075Z,11.30
2018-05-24T22:34:03.713Z,11.87
2018-05-24T22:36:31.295Z,8.97
2018-05-24T22:38:58.882Z,9.37
2018-05-24T22:41:26.513Z,12.90
2018-05-24T22:43:54.105Z,9.13
2018-05-24T22:46:21.692Z,10.00
2018-05-24T22:48:49.348Z,9.53
2018-05-24T22:51:16.934Z,10.03
2018-05-24T22:53:44.523Z,10.43
2018-05-24T22:56:12.152Z,10.63
2018-05-24T22:58:39.739Z,9.37
2018-05-24T23:01:07.329Z,10.83
2018-05-24T23:03:34.951Z,11.27
2018-05-24T23:06:02.526Z,9.40
2018-05-24T23:08:30.101Z,10.40
2018-05-24T23:10:57.767Z,10.43
2018-05-24T23:13:25.366Z,10.80
2018-05-24T23:15:52.955Z,9.80
2018-05-24T23:18:20.580Z,9.20
2018-05-24T23:20:48.163Z,10.27
2018-05-24T23:23:15.765Z,11.10
2018-05-24T23:25:43.399Z,11.40
2018-05-24T23:28:10.968Z,11.23
2018-05-24T23:30:38.540Z,10.63
2018-05-24T23:33:06.146Z,10.70
2018-05-24T23:35:33.722Z,10.97
2018-05-24T23:38:01.308Z,13.10
2018-05-24T23:40:28.926Z,10.90
2018-05-24T23:42:56.506Z,10.37
2018-05-24T23:45:24.089Z,9.77
2018-05-24T23:47:51.695Z,9.77
2018-05-24T23:50:19.277Z,11.60
2018-05-24T23:52:46.861Z,11.60
2018-05-24T23:55:14.525Z,11.93
2018-05-24T23:57:42.107Z,11.00
